Time;durP1;ratioP1;P1;durP2;ratioP2;P2;SDS_P1;SDS_P2;PMS_P1;PMS_P2;Temp;Humidity;BMP_temperature;BMP_pressure;BME280_temperature;BME280_humidity;BME280_pressure;Samples;Min_cycle;Max_cycle;Signal;HPM_P1;HPM_P2
2022/09/28 00:01:21;;;;;;;15.77;8.73;;;;;;;6.31;100.00;98667.63;6257481;28;20090;-96
2022/09/28 00:04:24;;;;;;;13.70;9.18;;;;;;;6.28;100.00;98672.22;6246601;28;20056;-96
2022/09/28 00:07:27;;;;;;;18.40;9.40;;;;;;;6.29;100.00;98663.56;6241404;28;20088;-96
2022/09/28 00:10:30;;;;;;;13.75;8.73;;;;;;;6.30;100.00;98662.63;6244625;28;20051;-96
2022/09/28 00:13:32;;;;;;;13.70;8.45;;;;;;;6.33;100.00;98663.13;6261963;28;20406;-96
2022/09/28 00:16:38;;;;;;;12.93;8.68;;;;;;;6.32;100.00;98664.09;6242048;28;20534;-96
2022/09/28 00:19:43;;;;;;;12.25;7.93;;;;;;;6.31;100.00;98659.91;6247270;28;20037;-96
2022/09/28 00:22:45;;;;;;;12.88;8.23;;;;;;;6.28;100.00;98656.81;6245849;28;20072;-96
2022/09/28 00:25:47;;;;;;;12.20;7.53;;;;;;;6.21;100.00;98648.84;6256844;28;20508;-96
2022/09/28 00:28:52;;;;;;;16.45;8.18;;;;;;;6.16;100.00;98651.00;6247696;28;20053;-96
2022/09/28 00:32:01;;;;;;;13.63;8.27;;;;;;;6.11;100.00;98648.88;6266604;28;20399;-96
2022/09/28 00:35:04;;;;;;;13.07;7.35;;;;;;;6.06;100.00;98645.91;6258609;28;20071;-96
2022/09/28 00:38:08;;;;;;;12.23;7.65;;;;;;;6.04;100.00;98640.13;6268586;28;20090;-96
2022/09/28 00:41:11;;;;;;;13.93;7.68;;;;;;;6.09;100.00;98630.22;6250883;28;20571;-96
2022/09/28 00:44:53;;;;;;;11.93;7.35;;;;;;;6.28;100.00;98619.06;6252586;28;20132;-96
2022/09/28 00:47:59;;;;;;;11.00;6.60;;;;;;;6.46;100.00;98630.22;6237981;28;20052;-96
2022/09/28 00:51:06;;;;;;;11.60;6.80;;;;;;;6.57;100.00;98623.28;6243851;28;20045;-96
2022/09/28 00:54:11;;;;;;;10.18;7.00;;;;;;;6.68;100.00;98616.19;6254682;28;20052;-96
2022/09/28 00:57:15;;;;;;;11.80;6.40;;;;;;;6.77;100.00;98618.84;6254461;28;20111;-96
2022/09/28 01:00:18;;;;;;;11.00;6.95;;;;;;;6.81;100.00;98621.00;6247971;28;20452;-96
2022/09/28 01:03:21;;;;;;;10.18;6.80;;;;;;;6.85;100.00;98603.50;6232017;28;20103;-96
2022/09/28 01:06:30;;;;;;;9.32;7.00;;;;;;;6.91;100.00;98600.38;6242409;28;20191;-96
2022/09/28 01:09:34;;;;;;;7.70;6.00;;;;;;;6.97;100.00;98609.25;6232039;28;20041;-96
2022/09/28 01:12:36;;;;;;;9.65;6.10;;;;;;;7.01;100.00;98601.13;6253566;28;20045;-96
2022/09/28 01:15:55;;;;;;;8.63;6.40;;;;;;;7.06;100.00;98601.47;6233743;28;20056;-96
2022/09/28 01:19:30;;;;;;;8.02;5.95;;;;;;;7.11;100.00;98599.28;6263302;28;20064;-96
2022/09/28 01:22:33;;;;;;;9.48;6.93;;;;;;;7.15;100.00;98598.97;6262689;28;20169;-96
2022/09/28 01:25:49;;;;;;;10.63;6.72;;;;;;;7.17;100.00;98597.06;6255410;28;20041;-96
2022/09/28 01:28:59;;;;;;;8.75;6.22;;;;;;;7.19;100.00;98593.38;6226739;28;20067;-96
2022/09/28 01:32:15;;;;;;;7.53;5.50;;;;;;;7.23;100.00;98586.19;6258939;28;20036;-95
2022/09/28 01:35:27;;;;;;;7.90;4.97;;;;;;;7.24;100.00;98585.22;6222265;28;20482;-96
2022/09/28 01:38:36;;;;;;;6.85;5.43;;;;;;;7.25;100.00;98589.41;6255142;28;20071;-96
2022/09/28 01:41:42;;;;;;;11.57;5.20;;;;;;;7.28;100.00;98587.38;6263466;28;20056;-96
2022/09/28 01:44:48;;;;;;;7.50;5.10;;;;;;;7.28;100.00;98581.41;6248832;28;20041;-95
2022/09/28 01:47:56;;;;;;;6.95;5.80;;;;;;;7.27;100.00;98579.78;6249438;28;20049;-96
2022/09/28 01:51:04;;;;;;;7.30;5.68;;;;;;;7.29;100.00;98567.59;6261552;28;20531;-95
2022/09/28 01:54:56;;;;;;;8.18;5.72;;;;;;;7.31;100.00;98574.19;6257436;28;20502;-95
2022/09/28 01:58:19;;;;;;;8.57;5.30;;;;;;;7.26;100.00;98566.13;6192264;28;20173;-95
2022/09/28 02:01:28;;;;;;;11.55;6.07;;;;;;;7.25;100.00;98567.06;6190647;28;20034;-95
2022/09/28 02:04:46;;;;;;;9.38;6.25;;;;;;;7.25;100.00;98561.09;6207942;28;20061;-95
2022/09/28 02:07:56;;;;;;;8.82;6.30;;;;;;;7.24;100.00;98552.59;6220679;28;20809;-95
2022/09/28 02:11:09;;;;;;;8.68;5.70;;;;;;;7.23;100.00;98548.41;6211496;28;20042;-95
2022/09/28 02:14:16;;;;;;;10.00;6.05;;;;;;;7.22;100.00;98551.13;6203443;28;20157;-94
2022/09/28 02:17:20;;;;;;;8.90;6.05;;;;;;;7.21;100.00;98546.94;6210966;28;20053;-95
2022/09/28 02:20:24;;;;;;;9.23;5.97;;;;;;;7.22;100.00;98546.78;6218274;28;20512;-95
2022/09/28 02:23:29;;;;;;;8.93;5.80;;;;;;;7.22;100.00;98546.78;6181115;28;20469;-95
2022/09/28 02:26:41;;;;;;;7.63;5.38;;;;;;;7.19;100.00;98536.78;6211984;28;20106;-95
2022/09/28 02:29:44;;;;;;;7.90;5.45;;;;;;;7.22;100.00;98541.63;6214407;28;20170;-95
2022/09/28 02:32:50;;;;;;;7.35;5.32;;;;;;;7.18;100.00;98535.19;6196981;28;20060;-95
2022/09/28 02:35:52;;;;;;;8.57;4.88;;;;;;;7.22;100.00;98538.25;6254236;28;20155;-94
2022/09/28 02:38:57;;;;;;;9.02;5.32;;;;;;;7.21;100.00;98531.50;6246735;28;20037;-94
2022/09/28 02:42:30;;;;;;;8.23;4.65;;;;;;;7.22;100.00;98525.38;6247745;28;20094;-93
2022/09/28 02:45:52;;;;;;;7.90;5.00;;;;;;;7.22;100.00;98525.38;6261059;28;20076;-93
2022/09/28 02:49:13;;;;;;;7.88;5.07;;;;;;;7.23;100.00;98527.00;6250316;28;20037;-93
2022/09/28 02:52:55;;;;;;;8.15;5.47;;;;;;;7.18;100.00;98524.88;6270371;28;20033;-94
2022/09/28 02:56:14;;;;;;;7.80;5.10;;;;;;;7.21;100.00;98523.78;6246439;28;20725;-94
2022/09/28 02:59:44;;;;;;;7.97;5.65;;;;;;;7.20;100.00;98517.81;6245047;28;20056;-94
2022/09/28 03:03:01;;;;;;;8.70;5.18;;;;;;;7.18;100.00;98521.47;6261512;28;20033;-95
2022/09/28 03:06:22;;;;;;;9.27;4.82;;;;;;;7.20;100.00;98514.44;6255594;28;20060;-95
2022/09/28 03:09:52;;;;;;;9.00;5.63;;;;;;;7.22;100.00;98513.31;6232126;28;20039;-95
2022/09/28 03:12:56;;;;;;;8.45;5.53;;;;;;;7.20;100.00;98519.56;6260197;28;20044;-95
2022/09/28 03:16:16;;;;;;;8.35;5.63;;;;;;;7.18;100.00;98514.59;6241885;28;20042;-95
2022/09/28 03:19:26;;;;;;;8.45;5.43;;;;;;;7.15;100.00;98506.34;6241872;28;20041;-96
2022/09/28 03:22:28;;;;;;;9.02;5.90;;;;;;;7.18;100.00;98514.59;6264353;28;20045;-95
2022/09/28 03:25:30;;;;;;;10.35;5.50;;;;;;;7.17;100.00;98517.31;6257728;28;20055;-95
2022/09/28 03:28:35;;;;;;;8.63;5.43;;;;;;;7.16;100.00;98513.94;6267702;28;20089;-95
2022/09/28 03:31:39;;;;;;;7.40;5.20;;;;;;;7.19;100.00;98505.09;6248846;28;20048;-95
2022/09/28 03:34:41;;;;;;;8.02;4.88;;;;;;;7.20;100.00;98509.28;6246257;28;20041;-95
2022/09/28 03:37:45;;;;;;;6.43;4.70;;;;;;;7.21;100.00;98505.78;6259523;28;20235;-95
2022/09/28 03:40:57;;;;;;;8.63;5.15;;;;;;;7.24;100.00;98502.91;6257578;28;20414;-95
2022/09/28 03:44:01;;;;;;;8.90;5.25;;;;;;;7.23;100.00;98502.09;6228082;28;20052;-95
2022/09/28 03:47:06;;;;;;;10.18;5.28;;;;;;;7.24;100.00;98498.53;6259620;28;20100;-94
2022/09/28 03:50:10;;;;;;;7.07;5.45;;;;;;;7.28;100.00;98493.94;6253289;28;20040;-94
2022/09/28 03:53:11;;;;;;;7.20;5.30;;;;;;;7.22;100.00;98489.38;6255342;28;20041;-94
2022/09/28 03:56:14;;;;;;;9.77;5.75;;;;;;;7.25;100.00;98486.47;6242389;28;20102;-93
2022/09/28 03:59:17;;;;;;;8.68;5.57;;;;;;;7.24;100.00;98484.88;6247591;28;20041;-94
2022/09/28 04:02:19;;;;;;;8.27;5.53;;;;;;;7.23;100.00;98485.81;6256334;28;20492;-95
2022/09/28 04:05:21;;;;;;;9.38;5.72;;;;;;;7.21;100.00;98483.41;6263170;28;20048;-94
2022/09/28 04:08:23;;;;;;;9.07;5.68;;;;;;;7.20;100.00;98474.06;6261293;28;20419;-95
2022/09/28 04:11:25;;;;;;;9.25;5.90;;;;;;;7.22;100.00;98474.72;6257286;28;20128;-95
2022/09/28 04:14:35;;;;;;;7.07;5.20;;;;;;;7.21;100.00;98467.97;6244359;28;20057;-94
2022/09/28 04:17:38;;;;;;;7.85;5.57;;;;;;;7.22;100.00;98469.59;6250885;28;20059;-94
2022/09/28 04:21:05;;;;;;;10.32;5.95;;;;;;;7.23;100.00;98470.38;6264857;28;20060;-94
2022/09/28 04:24:11;;;;;;;10.15;6.18;;;;;;;7.25;100.00;98468.47;6258382;28;20135;-94
2022/09/28 04:30:36;;;;;;;10.82;6.35;;;;;;;7.26;100.00;98472.69;6258195;28;20641;-94
2022/09/28 04:33:39;;;;;;;9.50;6.10;;;;;;;7.24;100.00;98467.66;6238914;28;20760;-94
2022/09/28 04:36:41;;;;;;;9.00;6.32;;;;;;;7.23;100.00;98467.81;6254840;28;20044;-95
2022/09/28 04:39:43;;;;;;;17.65;7.43;;;;;;;7.25;100.00;98473.63;6248095;28;20041;-94
2022/09/28 04:42:53;;;;;;;11.50;6.07;;;;;;;7.24;100.00;98461.72;6248805;28;20037;-95
2022/09/28 04:46:04;;;;;;;9.98;5.63;;;;;;;7.22;100.00;98463.63;6253011;28;20056;-94
2022/09/28 04:49:13;;;;;;;9.32;6.47;;;;;;;7.28;100.00;98463.03;6246773;28;20041;-94
2022/09/28 04:52:30;;;;;;;10.05;6.18;;;;;;;7.31;100.00;98462.75;6253300;28;20059;-94
2022/09/28 04:55:33;;;;;;;21.52;12.30;;;;;;;7.32;100.00;98457.41;6259982;28;20047;-94
2022/09/28 04:58:35;;;;;;;20.73;12.40;;;;;;;7.37;100.00;98458.75;6251002;28;20036;-94
2022/09/28 05:01:38;;;;;;;13.65;8.80;;;;;;;7.37;100.00;98463.88;6258419;28;20317;-95
2022/09/28 05:04:59;;;;;;;9.82;6.55;;;;;;;7.39;100.00;98469.69;6258320;28;20413;-93
2022/09/28 05:08:20;;;;;;;14.05;6.07;;;;;;;7.40;100.00;98455.84;6262266;28;20383;-93
2022/09/28 05:11:22;;;;;;;9.82;6.18;;;;;;;7.38;100.00;98457.78;6253578;28;20044;-94
2022/09/28 05:14:25;;;;;;;17.23;6.70;;;;;;;7.35;100.00;98464.03;6259695;28;20049;-94
2022/09/28 05:17:27;;;;;;;8.40;6.75;;;;;;;7.32;100.00;98461.75;6263892;28;20617;-93
2022/09/28 05:20:49;;;;;;;13.45;6.82;;;;;;;7.35;100.00;98458.88;6265558;28;20045;-95
2022/09/28 05:23:54;;;;;;;12.50;7.03;;;;;;;7.36;100.00;98457.94;6259395;28;20042;-94
2022/09/28 05:26:57;;;;;;;10.38;7.30;;;;;;;7.36;100.00;98455.38;6261688;28;20144;-94
2022/09/28 05:30:00;;;;;;;13.00;6.93;;;;;;;7.40;100.00;98456.66;6260723;28;20041;-95
2022/09/28 05:33:22;;;;;;;12.85;6.60;;;;;;;7.40;100.00;98459.22;6266433;28;20087;-94
2022/09/28 05:36:34;;;;;;;16.23;7.43;;;;;;;7.41;100.00;98453.16;6278391;28;20044;-94
2022/09/28 05:39:36;;;;;;;11.02;6.38;;;;;;;7.40;100.00;98461.00;6261175;28;20185;-94
2022/09/28 05:42:39;;;;;;;11.80;6.95;;;;;;;7.42;100.00;98459.09;6264208;28;20037;-94
2022/09/28 05:45:41;;;;;;;11.70;6.78;;;;;;;7.45;100.00;98456.22;6237192;28;20531;-94
2022/09/28 05:48:44;;;;;;;12.25;5.82;;;;;;;7.44;100.00;98450.25;6248719;28;20052;-94
2022/09/28 05:51:46;;;;;;;12.52;6.97;;;;;;;7.47;100.00;98457.66;6240182;28;20514;-94
2022/09/28 05:54:52;;;;;;;10.13;6.30;;;;;;;7.54;100.00;98458.69;6237770;28;20140;-94
2022/09/28 05:58:02;;;;;;;11.15;6.72;;;;;;;7.57;100.00;98460.13;6255185;28;20149;-95
2022/09/28 06:01:07;;;;;;;12.90;7.05;;;;;;;7.57;100.00;98460.13;6260161;28;20052;-95
2022/09/28 06:04:14;;;;;;;20.60;8.10;;;;;;;7.62;100.00;98459.69;6251389;28;20048;-95
2022/09/28 06:07:18;;;;;;;15.73;6.38;;;;;;;7.67;100.00;98460.81;6248209;28;20053;-95
2022/09/28 06:10:20;;;;;;;13.05;6.55;;;;;;;7.70;100.00;98457.97;6247944;28;20037;-94
2022/09/28 06:13:30;;;;;;;14.98;7.38;;;;;;;7.72;100.00;98457.78;6226355;28;20518;-94
2022/09/28 06:16:34;;;;;;;11.98;6.70;;;;;;;7.71;100.00;98463.91;6271252;28;20040;-94
2022/09/28 06:19:43;;;;;;;13.63;7.35;;;;;;;7.69;100.00;98469.22;6252601;28;20416;-94
2022/09/28 06:23:12;;;;;;;11.32;6.72;;;;;;;7.68;100.00;98474.53;6254659;28;20054;-94
2022/09/28 06:26:15;;;;;;;13.73;7.05;;;;;;;7.68;100.00;98474.53;6258873;28;20049;-94
2022/09/28 06:29:18;;;;;;;12.02;7.20;;;;;;;7.63;100.00;98482.72;6256788;28;20175;-95
2022/09/28 06:32:21;;;;;;;9.80;5.70;;;;;;;7.62;100.00;98485.44;6251381;28;20042;-94
2022/09/28 06:35:29;;;;;;;12.05;6.18;;;;;;;7.60;100.00;98484.78;6242992;28;20084;-94
2022/09/28 06:38:31;;;;;;;9.45;6.15;;;;;;;7.61;100.00;98484.63;6264747;28;20142;-93
2022/09/28 06:41:37;;;;;;;8.88;5.95;;;;;;;7.54;100.00;98486.19;6264760;28;20055;-94
2022/09/28 06:44:49;;;;;;;8.50;4.95;;;;;;;7.53;100.00;98495.69;6258326;28;20566;-94
2022/09/28 06:48:12;;;;;;;6.70;4.70;;;;;;;7.35;100.00;98494.91;6252540;28;20049;-93
2022/09/28 06:51:15;;;;;;;4.97;4.13;;;;;;;7.36;100.00;98500.91;6257739;28;20045;-96
2022/09/28 06:54:41;;;;;;;9.35;5.10;;;;;;;7.41;100.00;98503.81;6283786;28;20048;-95
2022/09/28 06:58:19;;;;;;;6.22;4.25;;;;;;;7.42;100.00;98505.41;6281727;28;20587;-95
2022/09/28 07:01:22;;;;;;;7.22;4.68;;;;;;;7.45;100.00;98503.38;6269940;28;20040;-95
2022/09/28 07:04:51;;;;;;;8.45;5.25;;;;;;;7.49;100.00;98509.81;6267994;28;20089;-94
2022/09/28 07:08:13;;;;;;;7.38;5.40;;;;;;;7.53;100.00;98508.56;6242532;28;20049;-94
2022/09/28 07:11:45;;;;;;;7.50;4.57;;;;;;;7.59;100.00;98511.50;6246531;28;20041;-95
2022/09/28 07:15:07;;;;;;;6.05;3.97;;;;;;;7.64;100.00;98511.84;6253940;28;20098;-95
2022/09/28 07:18:11;;;;;;;6.03;3.10;;;;;;;7.64;100.00;98520.38;6260667;28;20048;-94
2022/09/28 07:21:17;;;;;;;6.45;3.90;;;;;;;7.63;100.00;98531.63;6250067;28;20041;-95
2022/09/28 07:24:34;;;;;;;5.22;3.47;;;;;;;7.75;100.00;98529.59;6269896;28;20051;-96
2022/09/28 07:27:56;;;;;;;;;;;;;;;7.68;100.00;98531.97;6266569;28;20052;-95
2022/09/28 07:31:24;;;;;;;5.57;3.67;;;;;;;7.68;100.00;98536.34;6252719;28;19925;-96
2022/09/28 07:34:47;;;;;;;3.08;2.33;;;;;;;7.70;100.00;98536.97;6212628;28;20064;-96
2022/09/28 07:38:03;;;;;;;3.53;2.63;;;;;;;7.71;100.00;98541.19;6224338;28;20045;-94
2022/09/28 07:41:20;;;;;;;3.75;2.15;;;;;;;7.84;100.00;98551.88;6247030;28;20103;-95
2022/09/28 07:44:25;;;;;;;3.40;2.08;;;;;;;7.95;100.00;98551.63;6242508;28;20435;-96
2022/09/28 07:47:30;;;;;;;3.58;2.72;;;;;;;8.08;100.00;98558.94;6254298;28;20086;-96
2022/09/28 07:50:52;;;;;;;;;;;;;;;8.18;100.00;98554.47;6237825;28;20045;-95
2022/09/28 07:54:07;;;;;;;4.57;2.97;;;;;;;8.37;100.00;98557.75;6257382;28;20393;-96
2022/09/28 07:58:26;;;;;;;5.43;2.83;;;;;;;8.56;100.00;98562.69;6257566;28;20398;-96
2022/09/28 08:07:21;;;;;;;4.78;3.42;;;;;;;8.76;100.00;98575.31;6136756;23;20075;-96
2022/09/28 08:10:37;;;;;;;5.60;3.80;;;;;;;8.70;100.00;98576.75;6080266;29;20059;-96
2022/09/28 08:14:17;;;;;;;5.37;3.20;;;;;;;8.66;100.00;98580.59;6072198;29;20056;-96
2022/09/28 08:18:22;;;;;;;4.18;3.10;;;;;;;8.66;100.00;98584.97;6068262;29;20717;-96
2022/09/28 08:22:23;;;;;;;7.68;4.50;;;;;;;8.67;100.00;98589.13;6040392;29;20060;-96
2022/09/28 08:25:48;;;;;;;4.68;3.58;;;;;;;8.78;100.00;98597.41;6012695;29;20088;-96
2022/09/28 08:29:10;;;;;;;4.72;4.10;;;;;;;8.87;100.00;98595.66;6001007;29;20045;-96
2022/09/28 08:32:26;;;;;;;5.25;3.70;;;;;;;8.91;100.00;98598.72;6017773;29;20575;-95
2022/09/28 08:35:59;;;;;;;5.07;3.70;;;;;;;8.77;100.00;98603.53;5977021;29;20049;-96
2022/09/28 08:39:20;;;;;;;4.68;3.42;;;;;;;8.73;100.00;98607.38;6018013;29;20050;-96
2022/09/28 08:43:05;;;;;;;3.88;2.97;;;;;;;8.59;100.00;98620.88;5993202;29;20064;-96
2022/09/28 08:46:39;;;;;;;3.05;2.40;;;;;;;8.50;100.00;98616.66;6010243;29;20061;-95
2022/09/28 08:49:56;;;;;;;4.13;2.60;;;;;;;8.48;100.00;98618.59;6002578;29;20140;-94
2022/09/28 08:53:52;;;;;;;3.80;2.78;;;;;;;8.48;100.00;98618.59;6042948;29;20125;-94
2022/09/28 08:57:21;;;;;;;4.07;2.65;;;;;;;8.40;100.00;98625.31;6065865;29;20200;-94
2022/09/28 09:00:39;;;;;;;3.03;2.33;;;;;;;8.37;100.00;98627.34;6070518;29;20139;-94
2022/09/28 09:03:44;;;;;;;5.95;2.90;;;;;;;8.42;100.00;98625.16;6064154;29;20124;-94
2022/09/28 09:07:23;;;;;;;5.68;3.78;;;;;;;8.49;100.00;98627.91;6062111;29;20519;-93
2022/09/28 09:11:11;;;;;;;5.68;3.80;;;;;;;8.42;100.00;98640.59;6070423;29;20206;-92
2022/09/28 09:14:56;;;;;;;5.07;3.72;;;;;;;8.47;100.00;98635.81;6061412;29;20507;-93
2022/09/28 09:18:13;;;;;;;4.47;3.35;;;;;;;8.53;100.00;98639.56;6017675;29;20069;-93
2022/09/28 09:21:47;;;;;;;;;;;;;;;8.56;100.00;98644.41;5990233;29;20085;-93
2022/09/28 09:24:54;;;;;;;5.35;3.47;;;;;;;8.51;100.00;98644.06;6016842;29;20438;-93
2022/09/28 09:28:01;;;;;;;4.82;2.95;;;;;;;8.43;100.00;98649.19;5988395;29;20076;-95
2022/09/28 09:31:32;;;;;;;4.43;2.92;;;;;;;8.31;100.00;98656.31;6002851;29;20568;-93
2022/09/28 09:35:15;;;;;;;3.17;2.28;;;;;;;8.27;100.00;98652.44;5997437;29;20555;-94
2022/09/28 09:39:31;;;;;;;2.83;2.15;;;;;;;8.26;100.00;98659.34;5960411;29;20083;-93
2022/09/28 09:43:24;;;;;;;3.22;2.40;;;;;;;8.26;100.00;98661.94;5906793;30;20071;-94
2022/09/28 09:47:06;;;;;;;3.10;2.40;;;;;;;8.27;100.00;98660.16;5899002;30;20194;-93
2022/09/28 09:50:38;;;;;;;2.85;2.10;;;;;;;8.31;100.00;98667.44;5909130;30;20063;-93
2022/09/28 09:53:50;;;;;;;2.13;1.92;;;;;;;8.41;100.00;98670.75;5910197;30;20070;-92
2022/09/28 09:57:16;;;;;;;3.40;2.38;;;;;;;8.56;100.00;98676.13;5907419;30;20044;-92
2022/09/28 10:00:44;;;;;;;3.08;2.38;;;;;;;8.67;100.00;98671.66;5911484;30;20112;-92
2022/09/28 10:04:22;;;;;;;2.60;2.05;;;;;;;8.81;100.00;98671.88;5908932;30;20079;-93
2022/09/28 10:07:47;;;;;;;3.15;2.05;;;;;;;8.81;100.00;98678.81;5908517;30;20121;-91
2022/09/28 10:11:02;;;;;;;2.15;1.95;;;;;;;8.78;100.00;98674.00;5908126;30;20058;-91
2022/09/28 10:14:07;;;;;;;2.70;2.45;;;;;;;8.79;100.00;98673.00;5944491;29;20054;-91
2022/09/28 10:17:17;;;;;;;3.50;2.28;;;;;;;8.90;100.00;98672.75;6027245;29;20152;-91
2022/09/28 10:20:39;;;;;;;2.97;2.60;;;;;;;9.03;100.00;98675.69;6070084;29;20048;-94
2022/09/28 10:24:03;;;;;;;3.17;2.78;;;;;;;9.16;100.00;98675.22;6066917;29;20057;-90
2022/09/28 10:27:13;;;;;;;4.30;3.17;;;;;;;9.47;100.00;98677.22;6064876;29;20052;-90
2022/09/28 10:30:25;;;;;;;4.28;3.25;;;;;;;9.76;100.00;98688.88;6063921;29;20045;-91
2022/09/28 10:33:33;;;;;;;2.92;2.58;;;;;;;9.89;100.00;98689.22;6063552;29;20084;-91
2022/09/28 10:36:57;;;;;;;3.25;2.80;;;;;;;9.99;100.00;98695.00;6065729;29;20052;-91
2022/09/28 10:40:02;;;;;;;4.30;3.33;;;;;;;10.15;100.00;98678.66;6064362;29;20056;-91
2022/09/28 10:43:29;;;;;;;4.13;3.22;;;;;;;10.24;100.00;98695.00;6064607;29;20500;-91
2022/09/28 10:46:37;;;;;;;5.20;3.10;;;;;;;10.32;100.00;98693.22;6066523;29;20508;-91
2022/09/28 10:49:47;;;;;;;3.83;3.17;;;;;;;10.42;100.00;98693.03;6063183;29;20532;-91
2022/09/28 10:52:53;;;;;;;3.63;2.78;;;;;;;10.47;100.00;98692.53;6058192;29;20044;-90
2022/09/28 10:56:25;;;;;;;4.40;2.65;;;;;;;10.63;100.00;98702.03;6054424;29;20131;-91
2022/09/28 10:59:42;;;;;;;3.55;2.78;;;;;;;11.06;100.00;98698.16;6056882;29;20135;-91
2022/09/28 11:02:56;;;;;;;3.63;2.90;;;;;;;11.38;100.00;98691.97;6057096;29;20045;-91
2022/09/28 11:06:04;;;;;;;3.03;2.63;;;;;;;11.52;100.00;98694.81;6068781;29;20531;-91
2022/09/28 11:09:25;;;;;;;2.75;2.08;;;;;;;11.42;100.00;98698.41;6069062;29;20525;-91
2022/09/28 11:12:41;;;;;;;1.85;1.40;;;;;;;11.18;100.00;98701.97;6052353;29;20064;-89
2022/09/28 11:15:44;;;;;;;1.50;1.40;;;;;;;11.14;100.00;98695.50;6068225;29;20087;-90
2022/09/28 11:19:24;;;;;;;1.67;1.00;;;;;;;11.22;100.00;98697.25;6083040;29;20709;-90
2022/09/28 11:22:35;;;;;;;1.00;0.90;;;;;;;11.46;100.00;98695.50;6060506;29;20139;-90
2022/09/28 11:25:41;;;;;;;0.90;0.80;;;;;;;11.58;100.00;98694.94;6063013;29;20064;-90
2022/09/28 11:28:51;;;;;;;1.20;1.10;;;;;;;11.66;100.00;98704.44;6069885;29;20191;-90
2022/09/28 11:32:05;;;;;;;2.20;1.20;;;;;;;11.49;100.00;98703.72;6077941;29;20139;-91
2022/09/28 11:35:55;;;;;;;1.05;0.95;;;;;;;11.27;100.00;98691.56;6080897;29;20052;-90
2022/09/28 11:39:22;;;;;;;1.50;1.13;;;;;;;11.15;100.00;98697.09;6059730;29;20052;-90
2022/09/28 11:42:48;;;;;;;1.20;1.10;;;;;;;11.12;100.00;98705.22;6061443;29;20076;-91
2022/09/28 11:46:27;;;;;;;2.20;1.38;;;;;;;11.32;100.00;98704.81;6061056;29;20064;-91
2022/09/28 11:50:00;;;;;;;2.13;1.70;;;;;;;11.20;100.00;98709.56;6020096;29;20057;-92
2022/09/28 11:53:22;;;;;;;1.90;1.40;;;;;;;10.85;100.00;98711.66;6015200;29;20046;-91
2022/09/28 11:56:29;;;;;;;1.23;1.13;;;;;;;10.76;100.00;98715.25;6004480;29;21073;-91
2022/09/28 11:59:35;;;;;;;1.30;1.20;;;;;;;10.80;100.00;98720.91;6020454;29;20061;-90
2022/09/28 12:02:56;;;;;;;1.00;0.90;;;;;;;10.71;100.00;98720.94;6003940;29;20074;-90
2022/09/28 12:06:05;;;;;;;1.63;0.80;;;;;;;10.57;100.00;98722.41;6017253;29;20080;-91
2022/09/28 12:09:47;;;;;;;1.10;1.00;;;;;;;10.55;100.00;98721.78;6018903;29;20109;-90
2022/09/28 12:13:03;;;;;;;1.27;1.17;;;;;;;10.50;100.00;98718.06;5951769;29;20062;-90
2022/09/28 12:16:23;;;;;;;2.55;1.10;;;;;;;10.38;100.00;98732.31;5952630;29;20051;-90
2022/09/28 12:20:08;;;;;;;1.73;1.20;;;;;;;10.36;100.00;98732.50;5954348;29;20460;-90
2022/09/28 12:23:24;;;;;;;1.95;1.00;;;;;;;10.27;100.00;98734.25;5950733;29;20066;-90
2022/09/28 12:26:45;;;;;;;1.30;1.00;;;;;;;10.33;100.00;98736.22;5997818;29;20490;-90
2022/09/28 12:30:00;;;;;;;1.45;1.35;;;;;;;10.34;100.00;98730.06;6006661;29;20811;-91
2022/09/28 12:33:08;;;;;;;1.40;1.30;;;;;;;10.38;100.00;98732.31;6004049;29;20675;-89
2022/09/28 12:36:46;;;;;;;1.50;1.40;;;;;;;10.55;100.00;98723.56;6014640;29;20061;-90
2022/09/28 12:40:14;;;;;;;0.60;0.60;;;;;;;10.68;100.00;98733.38;6060314;29;20081;-90
2022/09/28 12:43:43;;;;;;;0.82;0.70;;;;;;;10.83;100.00;98733.50;6058260;29;20045;-90
2022/09/28 12:47:11;;;;;;;0.88;0.73;;;;;;;10.91;100.00;98736.88;6053796;29;20049;-90
2022/09/28 12:50:31;;;;;;;0.90;0.90;;;;;;;10.96;100.00;98736.38;6052672;29;20228;-91
2022/09/28 12:54:14;;;;;;;1.10;1.00;;;;;;;11.04;100.00;98736.34;6056203;29;20431;-90
2022/09/28 12:57:39;;;;;;;1.10;1.00;;;;;;;11.36;100.00;98743.16;6072245;29;20085;-89
2022/09/28 13:01:19;;;;;;;1.40;1.30;;;;;;;11.49;100.00;98736.59;6056304;29;20045;-90
2022/09/28 13:04:58;;;;;;;1.50;1.40;;;;;;;11.42;100.00;98739.88;6053689;29;20048;-90
2022/09/28 13:08:04;;;;;;;2.30;1.60;;;;;;;11.43;100.00;98732.94;6051714;29;20055;-90
2022/09/28 13:11:15;;;;;;;2.92;1.60;;;;;;;11.43;100.00;98745.88;6055025;29;20047;-91
2022/09/28 13:14:55;;;;;;;1.40;1.30;;;;;;;11.48;100.00;98750.53;6053668;29;20037;-90
2022/09/28 13:18:10;;;;;;;1.60;1.42;;;;;;;11.43;100.00;98744.09;6049906;29;20041;-90
2022/09/28 13:21:30;;;;;;;2.65;1.63;;;;;;;11.54;100.00;98742.09;6051880;29;20065;-89
2022/09/28 13:24:37;;;;;;;1.50;1.40;;;;;;;11.72;100.00;98746.97;6061384;29;20486;-90
2022/09/28 13:27:53;;;;;;;1.40;1.30;;;;;;;11.79;100.00;98751.31;6062052;29;20047;-89
2022/09/28 13:30:58;;;;;;;1.15;1.05;;;;;;;11.79;100.00;98747.91;6059112;29;20040;-90
2022/09/28 13:34:16;;;;;;;1.03;0.97;;;;;;;11.88;100.00;98753.88;6065069;29;20131;-89
2022/09/28 13:37:24;;;;;;;1.10;1.10;;;;;;;11.83;100.00;98744.00;6071387;29;20060;-90
2022/09/28 13:41:00;;;;;;;1.30;1.20;;;;;;;11.72;100.00;98749.56;6067207;29;20036;-89
2022/09/28 13:44:09;;;;;;;1.20;1.10;;;;;;;11.73;100.00;98754.59;6063326;29;20432;-90
2022/09/28 13:47:37;;;;;;;1.13;1.02;;;;;;;11.60;100.00;98751.75;6066537;29;20053;-89
2022/09/28 13:51:09;;;;;;;1.60;1.50;;;;;;;11.51;100.00;98756.19;6080364;29;20036;-91
2022/09/28 13:54:23;;;;;;;3.65;1.70;;;;;;;11.44;100.00;98760.44;6056982;29;20045;-91
2022/09/28 13:57:52;;;;;;;3.08;1.58;;;;;;;11.36;100.00;98756.09;6062995;29;20063;-90
2022/09/28 14:01:16;;;;;;;1.70;1.60;;;;;;;11.26;100.00;98759.88;6024298;29;20171;-90
2022/09/28 14:04:46;;;;;;;1.77;1.67;;;;;;;11.14;100.00;98768.00;6033178;29;20093;-91
2022/09/28 14:08:22;;;;;;;2.78;2.30;;;;;;;11.06;100.00;98767.25;6036659;29;20056;-90
2022/09/28 14:11:39;;;;;;;2.10;1.83;;;;;;;11.10;100.00;98769.31;6034056;29;20073;-90
2022/09/28 14:14:51;;;;;;;2.15;1.92;;;;;;;11.12;100.00;98767.38;6032069;29;20048;-91
2022/09/28 14:17:59;;;;;;;3.10;2.30;;;;;;;11.15;100.00;98771.41;6040642;29;20045;-90
2022/09/28 14:21:07;;;;;;;2.63;2.00;;;;;;;11.26;100.00;98775.44;6033253;29;20085;-91
2022/09/28 14:24:36;;;;;;;2.33;2.15;;;;;;;11.33;100.00;98768.56;6033564;29;20117;-92
2022/09/28 14:27:46;;;;;;;;;;;;;;;11.37;100.00;98778.44;6022701;29;20160;-91
2022/09/28 14:30:55;;;;;;;2.30;2.10;;;;;;;11.36;100.00;98770.84;6029855;29;20441;-91
2022/09/28 14:34:02;;;;;;;2.75;2.55;;;;;;;11.38;100.00;98774.88;6015742;29;20428;-91
2022/09/28 14:41:08;;;;;;;2.55;1.55;;;;;;;11.36;100.00;98788.97;6061014;29;20077;-91
2022/09/28 14:44:15;;;;;;;2.13;1.90;;;;;;;11.33;100.00;98782.34;6058427;29;20252;-91
2022/09/28 14:47:56;;;;;;;1.52;1.42;;;;;;;11.33;100.00;98786.69;6064150;29;20522;-91
2022/09/28 14:51:34;;;;;;;1.92;1.80;;;;;;;11.57;100.00;98788.38;6061186;29;20045;-91
2022/09/28 14:54:51;;;;;;;1.90;1.70;;;;;;;11.81;100.00;98785.63;6058579;29;20052;-92
2022/09/28 14:57:56;;;;;;;1.63;1.52;;;;;;;12.45;100.00;98787.94;6057363;29;20041;-91
2022/09/28 15:01:08;;;;;;;1.60;1.50;;;;;;;13.02;100.00;98786.56;6060018;29;20075;-91
2022/09/28 15:04:12;;;;;;;2.50;1.52;;;;;;;13.42;96.26;98781.88;6062827;29;20602;-91
2022/09/28 15:07:23;;;;;;;1.45;1.33;;;;;;;13.65;93.12;98791.31;6068294;29;20304;-90
2022/09/28 15:10:33;;;;;;;;;;;;;;;13.62;91.50;98789.09;6061743;29;20167;-91
2022/09/28 15:13:35;;;;;;;1.48;1.38;;;;;;;13.55;91.26;98787.22;6058591;29;19983;-91
2022/09/28 15:16:37;;;;;;;1.75;1.65;;;;;;;13.18;92.87;98797.75;6054202;29;20503;-91
2022/09/28 15:19:50;;;;;;;2.80;1.77;;;;;;;12.54;94.79;98788.66;6052976;29;20044;-90
2022/09/28 15:22:57;;;;;;;2.25;2.05;;;;;;;11.99;100.00;98792.38;6054993;29;20041;-91
2022/09/28 15:26:00;;;;;;;1.88;1.70;;;;;;;11.57;100.00;98789.19;6065607;29;20131;-91
2022/09/28 15:29:15;;;;;;;1.80;1.70;;;;;;;11.35;100.00;98793.34;6065173;29;20630;-90